sensor_id;sensor_type;location;lat;lon;timestamp;P1;durP1;ratioP1;P2;durP2;ratioP2
35777;SDS011;21899;42.662;23.316;2022-09-30T00:01:42;19.50;;;11.68;;
35777;SDS011;21899;42.662;23.316;2022-09-30T00:04:18;17.42;;;11.40;;
35777;SDS011;21899;42.662;23.316;2022-09-30T00:06:46;22.15;;;12.45;;
35777;SDS011;21899;42.662;23.316;2022-09-30T00:09:12;22.45;;;13.50;;
35777;SDS011;21899;42.662;23.316;2022-09-30T00:11:37;22.55;;;12.68;;
35777;SDS011;21899;42.662;23.316;2022-09-30T00:14:04;19.15;;;13.15;;
35777;SDS011;21899;42.662;23.316;2022-09-30T00:16:31;23.63;;;15.00;;
35777;SDS011;21899;42.662;23.316;2022-09-30T00:19:00;26.13;;;15.70;;
35777;SDS011;21899;42.662;23.316;2022-09-30T00:21:28;25.00;;;16.52;;
35777;SDS011;21899;42.662;23.316;2022-09-30T00:23:54;22.88;;;15.73;;
35777;SDS011;21899;42.662;23.316;2022-09-30T00:26:20;24.15;;;15.00;;
35777;SDS011;21899;42.662;23.316;2022-09-30T00:28:48;31.08;;;18.65;;
35777;SDS011;21899;42.662;23.316;2022-09-30T00:31:19;20.65;;;14.57;;
35777;SDS011;21899;42.662;23.316;2022-09-30T00:33:45;24.10;;;14.77;;
35777;SDS011;21899;42.662;23.316;2022-09-30T00:36:31;21.80;;;14.00;;
35777;SDS011;21899;42.662;23.316;2022-09-30T00:38:58;23.98;;;15.80;;
35777;SDS011;21899;42.662;23.316;2022-09-30T00:41:23;24.50;;;15.15;;
35777;SDS011;21899;42.662;23.316;2022-09-30T00:43:49;27.17;;;15.68;;
35777;SDS011;21899;42.662;23.316;2022-09-30T00:49:24;32.05;;;15.88;;
35777;SDS011;21899;42.662;23.316;2022-09-30T00:51:50;25.45;;;15.52;;
35777;SDS011;21899;42.662;23.316;2022-09-30T00:54:20;28.70;;;16.55;;
35777;SDS011;21899;42.662;23.316;2022-09-30T00:56:51;30.42;;;17.23;;
35777;SDS011;21899;42.662;23.316;2022-09-30T00:59:25;30.38;;;16.83;;
35777;SDS011;21899;42.662;23.316;2022-09-30T01:01:55;30.05;;;17.85;;
35777;SDS011;21899;42.662;23.316;2022-09-30T01:04:22;30.85;;;17.80;;
35777;SDS011;21899;42.662;23.316;2022-09-30T01:06:49;28.70;;;16.85;;
35777;SDS011;21899;42.662;23.316;2022-09-30T01:09:15;34.92;;;19.20;;
35777;SDS011;21899;42.662;23.316;2022-09-30T01:11:42;46.17;;;20.02;;
35777;SDS011;21899;42.662;23.316;2022-09-30T01:14:18;35.42;;;18.58;;
35777;SDS011;21899;42.662;23.316;2022-09-30T01:25:22;50.72;;;22.13;;
35777;SDS011;21899;42.662;23.316;2022-09-30T01:34:10;31.58;;;19.65;;
35777;SDS011;21899;42.662;23.316;2022-09-30T01:42:09;34.80;;;22.08;;
35777;SDS011;21899;42.662;23.316;2022-09-30T01:44:39;36.40;;;21.75;;
35777;SDS011;21899;42.662;23.316;2022-09-30T01:47:26;33.97;;;20.55;;
35777;SDS011;21899;42.662;23.316;2022-09-30T01:52:33;34.55;;;20.73;;
35777;SDS011;21899;42.662;23.316;2022-09-30T01:55:31;36.60;;;20.85;;
35777;SDS011;21899;42.662;23.316;2022-09-30T01:58:10;42.45;;;21.98;;
35777;SDS011;21899;42.662;23.316;2022-09-30T02:00:41;35.33;;;20.08;;
35777;SDS011;21899;42.662;23.316;2022-09-30T02:03:14;35.95;;;21.00;;
35777;SDS011;21899;42.662;23.316;2022-09-30T02:05:47;35.67;;;20.67;;
35777;SDS011;21899;42.662;23.316;2022-09-30T02:11:09;32.65;;;19.20;;
35777;SDS011;21899;42.662;23.316;2022-09-30T02:16:12;32.15;;;19.25;;
35777;SDS011;21899;42.662;23.316;2022-09-30T02:18:43;28.27;;;18.42;;
35777;SDS011;21899;42.662;23.316;2022-09-30T02:21:25;28.63;;;17.95;;
35777;SDS011;21899;42.662;23.316;2022-09-30T02:24:03;30.83;;;16.90;;
35777;SDS011;21899;42.662;23.316;2022-09-30T02:26:37;28.35;;;17.90;;
35777;SDS011;21899;42.662;23.316;2022-09-30T02:29:07;26.57;;;16.47;;
35777;SDS011;21899;42.662;23.316;2022-09-30T02:31:38;28.08;;;16.30;;
35777;SDS011;21899;42.662;23.316;2022-09-30T02:34:11;31.67;;;16.83;;
35777;SDS011;21899;42.662;23.316;2022-09-30T02:36:47;38.75;;;20.98;;
35777;SDS011;21899;42.662;23.316;2022-09-30T02:42:13;36.92;;;20.38;;
35777;SDS011;21899;42.662;23.316;2022-09-30T02:44:51;73.30;;;23.88;;
35777;SDS011;21899;42.662;23.316;2022-09-30T02:47:30;40.90;;;21.38;;
35777;SDS011;21899;42.662;23.316;2022-09-30T02:59:11;41.88;;;21.30;;
35777;SDS011;21899;42.662;23.316;2022-09-30T03:01:36;72.07;;;24.15;;
35777;SDS011;21899;42.662;23.316;2022-09-30T03:04:06;56.95;;;21.52;;
35777;SDS011;21899;42.662;23.316;2022-09-30T03:06:34;115.53;;;25.65;;
35777;SDS011;21899;42.662;23.316;2022-09-30T03:09:01;65.50;;;23.00;;
35777;SDS011;21899;42.662;23.316;2022-09-30T03:11:27;190.90;;;23.73;;
35777;SDS011;21899;42.662;23.316;2022-09-30T03:16:47;260.38;;;30.92;;
35777;SDS011;21899;42.662;23.316;2022-09-30T03:30:30;284.42;;;36.78;;
35777;SDS011;21899;42.662;23.316;2022-09-30T03:33:07;256.40;;;34.15;;
35777;SDS011;21899;42.662;23.316;2022-09-30T03:38:26;331.52;;;41.17;;
35777;SDS011;21899;42.662;23.316;2022-09-30T03:43:46;91.32;;;26.52;;
35777;SDS011;21899;42.662;23.316;2022-09-30T03:49:09;199.70;;;31.55;;
35777;SDS011;21899;42.662;23.316;2022-09-30T03:51:39;106.50;;;27.73;;
35777;SDS011;21899;42.662;23.316;2022-09-30T03:54:09;82.32;;;24.80;;
35777;SDS011;21899;42.662;23.316;2022-09-30T03:56:37;110.82;;;24.10;;
35777;SDS011;21899;42.662;23.316;2022-09-30T03:59:10;113.07;;;22.90;;
35777;SDS011;21899;42.662;23.316;2022-09-30T04:01:38;98.18;;;24.33;;
35777;SDS011;21899;42.662;23.316;2022-09-30T04:04:03;248.95;;;31.98;;
35777;SDS011;21899;42.662;23.316;2022-09-30T04:06:29;59.13;;;22.98;;
35777;SDS011;21899;42.662;23.316;2022-09-30T04:08:54;109.72;;;24.55;;
35777;SDS011;21899;42.662;23.316;2022-09-30T04:11:20;175.10;;;25.80;;
35777;SDS011;21899;42.662;23.316;2022-09-30T04:13:45;116.90;;;24.05;;
35777;SDS011;21899;42.662;23.316;2022-09-30T04:16:10;157.40;;;24.52;;
35777;SDS011;21899;42.662;23.316;2022-09-30T04:18:36;120.18;;;25.00;;
35777;SDS011;21899;42.662;23.316;2022-09-30T04:21:09;68.57;;;23.27;;
35777;SDS011;21899;42.662;23.316;2022-09-30T04:23:37;258.83;;;32.45;;
35777;SDS011;21899;42.662;23.316;2022-09-30T04:26:05;130.23;;;25.95;;
35777;SDS011;21899;42.662;23.316;2022-09-30T04:28:32;73.75;;;24.40;;
35777;SDS011;21899;42.662;23.316;2022-09-30T04:30:58;99.55;;;28.15;;
35777;SDS011;21899;42.662;23.316;2022-09-30T04:33:25;62.05;;;23.50;;
35777;SDS011;21899;42.662;23.316;2022-09-30T04:35:54;56.63;;;23.85;;
35777;SDS011;21899;42.662;23.316;2022-09-30T04:38:20;65.50;;;24.88;;
35777;SDS011;21899;42.662;23.316;2022-09-30T04:40:47;87.30;;;25.25;;
35777;SDS011;21899;42.662;23.316;2022-09-30T04:43:14;102.32;;;28.17;;
35777;SDS011;21899;42.662;23.316;2022-09-30T04:45:42;395.70;;;39.10;;
35777;SDS011;21899;42.662;23.316;2022-09-30T04:48:09;58.72;;;24.52;;
35777;SDS011;21899;42.662;23.316;2022-09-30T04:50:34;245.70;;;31.52;;
35777;SDS011;21899;42.662;23.316;2022-09-30T04:53:00;75.40;;;24.67;;
35777;SDS011;21899;42.662;23.316;2022-09-30T04:55:25;62.60;;;25.10;;
35777;SDS011;21899;42.662;23.316;2022-09-30T04:57:51;66.80;;;26.13;;
35777;SDS011;21899;42.662;23.316;2022-09-30T05:00:16;69.82;;;26.65;;
35777;SDS011;21899;42.662;23.316;2022-09-30T05:02:42;84.93;;;23.27;;
35777;SDS011;21899;42.662;23.316;2022-09-30T05:05:08;72.60;;;24.65;;
35777;SDS011;21899;42.662;23.316;2022-09-30T05:07:34;148.45;;;28.63;;
35777;SDS011;21899;42.662;23.316;2022-09-30T05:09:59;85.05;;;25.17;;
35777;SDS011;21899;42.662;23.316;2022-09-30T05:12:25;56.20;;;22.38;;
35777;SDS011;21899;42.662;23.316;2022-09-30T05:14:50;80.93;;;25.08;;
35777;SDS011;21899;42.662;23.316;2022-09-30T05:17:16;45.00;;;22.25;;
35777;SDS011;21899;42.662;23.316;2022-09-30T05:19:41;65.55;;;24.08;;
35777;SDS011;21899;42.662;23.316;2022-09-30T05:22:06;44.30;;;22.85;;
35777;SDS011;21899;42.662;23.316;2022-09-30T05:24:32;55.85;;;22.45;;
35777;SDS011;21899;42.662;23.316;2022-09-30T05:26:57;119.05;;;27.75;;
35777;SDS011;21899;42.662;23.316;2022-09-30T05:29:23;54.92;;;25.05;;
35777;SDS011;21899;42.662;23.316;2022-09-30T05:31:48;54.80;;;25.30;;
35777;SDS011;21899;42.662;23.316;2022-09-30T05:34:14;46.13;;;24.83;;
35777;SDS011;21899;42.662;23.316;2022-09-30T05:36:41;56.45;;;26.35;;
35777;SDS011;21899;42.662;23.316;2022-09-30T05:39:08;58.45;;;26.52;;
35777;SDS011;21899;42.662;23.316;2022-09-30T05:41:34;49.15;;;25.30;;
35777;SDS011;21899;42.662;23.316;2022-09-30T05:43:59;55.63;;;25.65;;
35777;SDS011;21899;42.662;23.316;2022-09-30T05:46:25;48.03;;;22.50;;
35777;SDS011;21899;42.662;23.316;2022-09-30T05:48:52;50.75;;;23.60;;
35777;SDS011;21899;42.662;23.316;2022-09-30T05:51:18;110.22;;;27.40;;
35777;SDS011;21899;42.662;23.316;2022-09-30T05:53:44;55.10;;;27.17;;
35777;SDS011;21899;42.662;23.316;2022-09-30T05:56:10;75.85;;;32.83;;
35777;SDS011;21899;42.662;23.316;2022-09-30T05:58:35;94.50;;;30.67;;
35777;SDS011;21899;42.662;23.316;2022-09-30T06:01:05;85.78;;;29.13;;
35777;SDS011;21899;42.662;23.316;2022-09-30T06:03:32;76.00;;;31.60;;
35777;SDS011;21899;42.662;23.316;2022-09-30T06:05:58;98.65;;;27.30;;
35777;SDS011;21899;42.662;23.316;2022-09-30T06:08:24;122.60;;;27.60;;
35777;SDS011;21899;42.662;23.316;2022-09-30T06:10:49;171.57;;;30.33;;
35777;SDS011;21899;42.662;23.316;2022-09-30T06:13:15;113.30;;;27.35;;
35777;SDS011;21899;42.662;23.316;2022-09-30T06:15:41;280.58;;;35.33;;
35777;SDS011;21899;42.662;23.316;2022-09-30T06:18:07;135.73;;;31.50;;
35777;SDS011;21899;42.662;23.316;2022-09-30T06:20:34;57.90;;;27.38;;
35777;SDS011;21899;42.662;23.316;2022-09-30T06:23:02;57.47;;;28.48;;
35777;SDS011;21899;42.662;23.316;2022-09-30T06:25:28;62.83;;;29.40;;
35777;SDS011;21899;42.662;23.316;2022-09-30T06:27:55;75.03;;;32.35;;
35777;SDS011;21899;42.662;23.316;2022-09-30T06:30:20;61.63;;;33.40;;
35777;SDS011;21899;42.662;23.316;2022-09-30T06:32:46;103.93;;;34.15;;
35777;SDS011;21899;42.662;23.316;2022-09-30T06:35:11;61.53;;;33.53;;
35777;SDS011;21899;42.662;23.316;2022-09-30T06:37:37;66.85;;;31.95;;
35777;SDS011;21899;42.662;23.316;2022-09-30T06:40:03;58.70;;;33.40;;
35777;SDS011;21899;42.662;23.316;2022-09-30T06:42:30;92.80;;;34.78;;
35777;SDS011;21899;42.662;23.316;2022-09-30T06:44:55;60.38;;;33.58;;
35777;SDS011;21899;42.662;23.316;2022-09-30T06:47:21;62.45;;;33.45;;
35777;SDS011;21899;42.662;23.316;2022-09-30T06:49:46;62.75;;;34.85;;
35777;SDS011;21899;42.662;23.316;2022-09-30T06:52:12;54.67;;;31.40;;
35777;SDS011;21899;42.662;23.316;2022-09-30T06:54:38;56.75;;;32.25;;
35777;SDS011;21899;42.662;23.316;2022-09-30T06:57:07;54.75;;;30.10;;
35777;SDS011;21899;42.662;23.316;2022-09-30T06:59:33;52.47;;;31.70;;
35777;SDS011;21899;42.662;23.316;2022-09-30T07:01:59;52.22;;;29.73;;
35777;SDS011;21899;42.662;23.316;2022-09-30T07:04:24;54.85;;;30.52;;
35777;SDS011;21899;42.662;23.316;2022-09-30T07:06:50;53.60;;;31.02;;
35777;SDS011;21899;42.662;23.316;2022-09-30T07:09:15;47.50;;;28.35;;
35777;SDS011;21899;42.662;23.316;2022-09-30T07:11:41;53.05;;;29.25;;
35777;SDS011;21899;42.662;23.316;2022-09-30T07:14:07;47.42;;;27.88;;
35777;SDS011;21899;42.662;23.316;2022-09-30T07:16:34;46.17;;;29.08;;
35777;SDS011;21899;42.662;23.316;2022-09-30T07:19:00;45.03;;;27.23;;
35777;SDS011;21899;42.662;23.316;2022-09-30T07:21:26;41.13;;;24.83;;
35777;SDS011;21899;42.662;23.316;2022-09-30T07:23:52;43.05;;;25.70;;
35777;SDS011;21899;42.662;23.316;2022-09-30T07:26:19;41.72;;;26.27;;
35777;SDS011;21899;42.662;23.316;2022-09-30T07:28:47;44.13;;;26.55;;
35777;SDS011;21899;42.662;23.316;2022-09-30T07:31:14;44.83;;;27.45;;
35777;SDS011;21899;42.662;23.316;2022-09-30T07:33:42;40.67;;;27.23;;
35777;SDS011;21899;42.662;23.316;2022-09-30T07:36:08;40.38;;;26.52;;
35777;SDS011;21899;42.662;23.316;2022-09-30T07:38:38;42.00;;;27.38;;
35777;SDS011;21899;42.662;23.316;2022-09-30T07:41:05;45.03;;;27.52;;
35777;SDS011;21899;42.662;23.316;2022-09-30T07:43:39;39.00;;;25.88;;
35777;SDS011;21899;42.662;23.316;2022-09-30T07:46:11;39.88;;;25.55;;
35777;SDS011;21899;42.662;23.316;2022-09-30T07:48:44;44.25;;;26.92;;
35777;SDS011;21899;42.662;23.316;2022-09-30T07:51:19;41.58;;;26.83;;
35777;SDS011;21899;42.662;23.316;2022-09-30T07:53:46;36.67;;;22.93;;
35777;SDS011;21899;42.662;23.316;2022-09-30T07:56:14;35.35;;;23.50;;
35777;SDS011;21899;42.662;23.316;2022-09-30T07:58:41;35.15;;;22.95;;
35777;SDS011;21899;42.662;23.316;2022-09-30T08:01:06;34.95;;;21.75;;
35777;SDS011;21899;42.662;23.316;2022-09-30T08:03:33;32.58;;;20.13;;
35777;SDS011;21899;42.662;23.316;2022-09-30T08:06:04;33.00;;;21.75;;
35777;SDS011;21899;42.662;23.316;2022-09-30T08:08:31;40.42;;;22.35;;
35777;SDS011;21899;42.662;23.316;2022-09-30T08:11:00;34.38;;;20.20;;
35777;SDS011;21899;42.662;23.316;2022-09-30T08:13:25;23.58;;;16.80;;
35777;SDS011;21899;42.662;23.316;2022-09-30T08:15:51;30.23;;;17.73;;
35777;SDS011;21899;42.662;23.316;2022-09-30T08:18:17;29.25;;;18.27;;
35777;SDS011;21899;42.662;23.316;2022-09-30T08:20:42;29.95;;;18.50;;
35777;SDS011;21899;42.662;23.316;2022-09-30T08:23:08;35.00;;;20.42;;
35777;SDS011;21899;42.662;23.316;2022-09-30T08:25:33;33.38;;;20.65;;
35777;SDS011;21899;42.662;23.316;2022-09-30T08:27:58;28.13;;;18.33;;
35777;SDS011;21899;42.662;23.316;2022-09-30T08:30:24;28.77;;;18.27;;
35777;SDS011;21899;42.662;23.316;2022-09-30T08:32:49;26.92;;;17.90;;
35777;SDS011;21899;42.662;23.316;2022-09-30T08:35:15;28.15;;;19.52;;
35777;SDS011;21899;42.662;23.316;2022-09-30T08:37:40;26.27;;;18.08;;
35777;SDS011;21899;42.662;23.316;2022-09-30T08:40:10;30.35;;;18.20;;
35777;SDS011;21899;42.662;23.316;2022-09-30T08:51:22;24.52;;;15.25;;
35777;SDS011;21899;42.662;23.316;2022-09-30T08:53:54;23.60;;;15.77;;
35777;SDS011;21899;42.662;23.316;2022-09-30T08:56:25;23.02;;;13.40;;
35777;SDS011;21899;42.662;23.316;2022-09-30T08:58:55;21.88;;;12.18;;
35777;SDS011;21899;42.662;23.316;2022-09-30T09:01:35;17.98;;;12.55;;
35777;SDS011;21899;42.662;23.316;2022-09-30T09:04:05;22.42;;;12.35;;
35777;SDS011;21899;42.662;23.316;2022-09-30T09:17:51;27.88;;;16.60;;
35777;SDS011;21899;42.662;23.316;2022-09-30T09:20:20;16.52;;;11.57;;
35777;SDS011;21899;42.662;23.316;2022-09-30T09:22:49;16.83;;;10.85;;
35777;SDS011;21899;42.662;23.316;2022-09-30T09:25:20;15.27;;;10.63;;
35777;SDS011;21899;42.662;23.316;2022-09-30T09:27:53;15.85;;;10.30;;
35777;SDS011;21899;42.662;23.316;2022-09-30T09:30:25;13.57;;;9.43;;
35777;SDS011;21899;42.662;23.316;2022-09-30T09:32:59;15.65;;;10.27;;
35777;SDS011;21899;42.662;23.316;2022-09-30T09:35:41;10.48;;;7.63;;
35777;SDS011;21899;42.662;23.316;2022-09-30T09:38:30;16.63;;;8.95;;
35777;SDS011;21899;42.662;23.316;2022-09-30T09:46:24;13.30;;;8.30;;
35777;SDS011;21899;42.662;23.316;2022-09-30T09:54:36;18.38;;;8.73;;
35777;SDS011;21899;42.662;23.316;2022-09-30T09:57:12;13.90;;;8.30;;
35777;SDS011;21899;42.662;23.316;2022-09-30T10:02:52;12.50;;;7.90;;
35777;SDS011;21899;42.662;23.316;2022-09-30T10:05:22;13.95;;;8.82;;
35777;SDS011;21899;42.662;23.316;2022-09-30T10:08:11;13.63;;;8.85;;
35777;SDS011;21899;42.662;23.316;2022-09-30T10:10:52;13.30;;;10.00;;
35777;SDS011;21899;42.662;23.316;2022-09-30T10:13:21;16.83;;;9.93;;
35777;SDS011;21899;42.662;23.316;2022-09-30T10:15:53;12.02;;;8.50;;
35777;SDS011;21899;42.662;23.316;2022-09-30T10:18:25;11.15;;;7.57;;
35777;SDS011;21899;42.662;23.316;2022-09-30T10:21:00;7.63;;;5.28;;
35777;SDS011;21899;42.662;23.316;2022-09-30T10:23:35;11.38;;;6.20;;
35777;SDS011;21899;42.662;23.316;2022-09-30T10:33:52;17.85;;;5.38;;
35777;SDS011;21899;42.662;23.316;2022-09-30T10:36:39;7.40;;;4.13;;
35777;SDS011;21899;42.662;23.316;2022-09-30T10:39:14;7.03;;;4.13;;
35777;SDS011;21899;42.662;23.316;2022-09-30T10:42:06;7.25;;;3.97;;
35777;SDS011;21899;42.662;23.316;2022-09-30T10:47:10;5.25;;;3.35;;
35777;SDS011;21899;42.662;23.316;2022-09-30T10:49:41;6.15;;;3.95;;
35777;SDS011;21899;42.662;23.316;2022-09-30T10:52:21;7.85;;;3.83;;
35777;SDS011;21899;42.662;23.316;2022-09-30T10:57:27;7.95;;;3.42;;
35777;SDS011;21899;42.662;23.316;2022-09-30T11:00:02;5.47;;;3.67;;
35777;SDS011;21899;42.662;23.316;2022-09-30T11:07:40;4.47;;;2.90;;
35777;SDS011;21899;42.662;23.316;2022-09-30T11:10:20;6.82;;;3.53;;
35777;SDS011;21899;42.662;23.316;2022-09-30T11:13:12;4.43;;;3.55;;
35777;SDS011;21899;42.662;23.316;2022-09-30T11:18:44;4.95;;;3.30;;
35777;SDS011;21899;42.662;23.316;2022-09-30T11:23:47;6.80;;;3.13;;
35777;SDS011;21899;42.662;23.316;2022-09-30T11:26:22;8.57;;;3.88;;
35777;SDS011;21899;42.662;23.316;2022-09-30T11:34:42;6.22;;;3.10;;
35777;SDS011;21899;42.662;23.316;2022-09-30T11:36:59;9.07;;;3.22;;
35777;SDS011;21899;42.662;23.316;2022-09-30T11:42:22;5.28;;;2.30;;
35777;SDS011;21899;42.662;23.316;2022-09-30T11:45:00;3.30;;;1.95;;
35777;SDS011;21899;42.662;23.316;2022-09-30T11:53:24;4.55;;;2.05;;
35777;SDS011;21899;42.662;23.316;2022-09-30T11:56:54;6.35;;;2.80;;
35777;SDS011;21899;42.662;23.316;2022-09-30T11:58:50;5.40;;;3.10;;
35777;SDS011;21899;42.662;23.316;2022-09-30T12:01:30;5.15;;;2.88;;
35777;SDS011;21899;42.662;23.316;2022-09-30T12:04:04;4.60;;;2.63;;
35777;SDS011;21899;42.662;23.316;2022-09-30T12:06:32;5.18;;;2.70;;
35777;SDS011;21899;42.662;23.316;2022-09-30T12:09:05;5.45;;;2.58;;
35777;SDS011;21899;42.662;23.316;2022-09-30T12:14:28;7.93;;;2.90;;
35777;SDS011;21899;42.662;23.316;2022-09-30T12:16:59;4.60;;;2.67;;
35777;SDS011;21899;42.662;23.316;2022-09-30T12:19:33;5.72;;;2.42;;
35777;SDS011;21899;42.662;23.316;2022-09-30T12:22:10;7.70;;;2.95;;
35777;SDS011;21899;42.662;23.316;2022-09-30T12:24:41;3.72;;;2.60;;
35777;SDS011;21899;42.662;23.316;2022-09-30T12:27:15;6.25;;;2.40;;
35777;SDS011;21899;42.662;23.316;2022-09-30T12:29:49;3.65;;;2.05;;
35777;SDS011;21899;42.662;23.316;2022-09-30T12:38:15;6.83;;;2.93;;
35777;SDS011;21899;42.662;23.316;2022-09-30T12:48:40;5.60;;;2.35;;
35777;SDS011;21899;42.662;23.316;2022-09-30T12:51:33;4.10;;;2.13;;
35777;SDS011;21899;42.662;23.316;2022-09-30T12:54:05;4.03;;;2.00;;
35777;SDS011;21899;42.662;23.316;2022-09-30T12:56:42;4.72;;;2.53;;
35777;SDS011;21899;42.662;23.316;2022-09-30T12:59:11;4.65;;;2.00;;
35777;SDS011;21899;42.662;23.316;2022-09-30T13:01:37;7.45;;;3.10;;
35777;SDS011;21899;42.662;23.316;2022-09-30T13:11:44;7.57;;;2.90;;
35777;SDS011;21899;42.662;23.316;2022-09-30T13:29:59;8.15;;;1.98;;
35777;SDS011;21899;42.662;23.316;2022-09-30T13:32:35;4.65;;;2.17;;
35777;SDS011;21899;42.662;23.316;2022-09-30T13:35:23;4.13;;;2.17;;
35777;SDS011;21899;42.662;23.316;2022-09-30T13:38:13;5.03;;;2.17;;
35777;SDS011;21899;42.662;23.316;2022-09-30T13:41:00;4.15;;;2.13;;
35777;SDS011;21899;42.662;23.316;2022-09-30T13:46:28;5.60;;;1.58;;
35777;SDS011;21899;42.662;23.316;2022-09-30T13:49:04;2.90;;;1.80;;
35777;SDS011;21899;42.662;23.316;2022-09-30T13:51:37;4.90;;;2.40;;
35777;SDS011;21899;42.662;23.316;2022-09-30T13:54:05;3.42;;;2.05;;
35777;SDS011;21899;42.662;23.316;2022-09-30T13:56:36;2.78;;;1.50;;
35777;SDS011;21899;42.662;23.316;2022-09-30T14:13:30;2.45;;;1.92;;
35777;SDS011;21899;42.662;23.316;2022-09-30T14:21:44;4.90;;;2.00;;
35777;SDS011;21899;42.662;23.316;2022-09-30T14:31:56;4.47;;;1.83;;
35777;SDS011;21899;42.662;23.316;2022-09-30T14:34:23;3.63;;;2.08;;
35777;SDS011;21899;42.662;23.316;2022-09-30T14:36:51;4.60;;;1.80;;
35777;SDS011;21899;42.662;23.316;2022-09-30T14:39:23;3.55;;;1.63;;
35777;SDS011;21899;42.662;23.316;2022-09-30T14:41:57;3.42;;;2.10;;
35777;SDS011;21899;42.662;23.316;2022-09-30T14:44:25;2.85;;;1.83;;
35777;SDS011;21899;42.662;23.316;2022-09-30T14:46:54;3.92;;;2.20;;
35777;SDS011;21899;42.662;23.316;2022-09-30T14:49:25;5.00;;;1.90;;
35777;SDS011;21899;42.662;23.316;2022-09-30T14:51:57;3.28;;;1.85;;
35777;SDS011;21899;42.662;23.316;2022-09-30T14:54:25;2.70;;;1.73;;
35777;SDS011;21899;42.662;23.316;2022-09-30T14:56:53;4.32;;;2.10;;
35777;SDS011;21899;42.662;23.316;2022-09-30T14:59:23;4.43;;;2.20;;
35777;SDS011;21899;42.662;23.316;2022-09-30T15:04:44;4.57;;;2.08;;
35777;SDS011;21899;42.662;23.316;2022-09-30T15:07:14;7.13;;;2.38;;
35777;SDS011;21899;42.662;23.316;2022-09-30T15:09:40;4.85;;;2.47;;
35777;SDS011;21899;42.662;23.316;2022-09-30T15:12:15;4.88;;;2.05;;
35777;SDS011;21899;42.662;23.316;2022-09-30T15:17:17;4.50;;;1.88;;
35777;SDS011;21899;42.662;23.316;2022-09-30T15:20:02;5.85;;;2.38;;
35777;SDS011;21899;42.662;23.316;2022-09-30T15:23:02;3.67;;;1.90;;
35777;SDS011;21899;42.662;23.316;2022-09-30T15:25:33;4.13;;;1.95;;
35777;SDS011;21899;42.662;23.316;2022-09-30T15:28:00;5.03;;;2.28;;
35777;SDS011;21899;42.662;23.316;2022-09-30T15:30:27;3.70;;;2.40;;
35777;SDS011;21899;42.662;23.316;2022-09-30T15:33:00;5.85;;;2.55;;
35777;SDS011;21899;42.662;23.316;2022-09-30T15:35:27;3.20;;;2.20;;
35777;SDS011;21899;42.662;23.316;2022-09-30T15:37:54;6.03;;;2.55;;
35777;SDS011;21899;42.662;23.316;2022-09-30T15:40:34;4.65;;;2.47;;
35777;SDS011;21899;42.662;23.316;2022-09-30T15:43:14;6.05;;;2.55;;
35777;SDS011;21899;42.662;23.316;2022-09-30T15:45:55;3.97;;;2.28;;
35777;SDS011;21899;42.662;23.316;2022-09-30T15:50:55;5.25;;;2.75;;
35777;SDS011;21899;42.662;23.316;2022-09-30T15:55:49;5.47;;;3.05;;
35777;SDS011;21899;42.662;23.316;2022-09-30T16:00:50;7.25;;;2.90;;
35777;SDS011;21899;42.662;23.316;2022-09-30T16:05:44;7.60;;;3.25;;
35777;SDS011;21899;42.662;23.316;2022-09-30T16:08:22;4.65;;;3.50;;
35777;SDS011;21899;42.662;23.316;2022-09-30T16:10:52;4.43;;;2.90;;
35777;SDS011;21899;42.662;23.316;2022-09-30T16:13:20;7.07;;;2.78;;
35777;SDS011;21899;42.662;23.316;2022-09-30T16:15:53;6.22;;;2.70;;
35777;SDS011;21899;42.662;23.316;2022-09-30T16:18:23;3.63;;;2.60;;
35777;SDS011;21899;42.662;23.316;2022-09-30T16:21:03;8.32;;;3.17;;
35777;SDS011;21899;42.662;23.316;2022-09-30T16:23:36;5.28;;;2.75;;
35777;SDS011;21899;42.662;23.316;2022-09-30T16:28:37;9.32;;;2.78;;
35777;SDS011;21899;42.662;23.316;2022-09-30T16:31:03;6.07;;;3.25;;
35777;SDS011;21899;42.662;23.316;2022-09-30T16:33:30;6.13;;;3.33;;
35777;SDS011;21899;42.662;23.316;2022-09-30T16:35:55;5.78;;;3.40;;
35777;SDS011;21899;42.662;23.316;2022-09-30T16:38:21;7.18;;;2.72;;
35777;SDS011;21899;42.662;23.316;2022-09-30T16:40:46;6.90;;;3.40;;
35777;SDS011;21899;42.662;23.316;2022-09-30T16:43:12;5.07;;;3.03;;
35777;SDS011;21899;42.662;23.316;2022-09-30T16:45:38;5.78;;;3.17;;
35777;SDS011;21899;42.662;23.316;2022-09-30T16:48:07;6.13;;;4.25;;
35777;SDS011;21899;42.662;23.316;2022-09-30T16:53:37;8.93;;;4.57;;
35777;SDS011;21899;42.662;23.316;2022-09-30T16:56:03;10.40;;;5.72;;
35777;SDS011;21899;42.662;23.316;2022-09-30T16:58:29;8.50;;;4.55;;
35777;SDS011;21899;42.662;23.316;2022-09-30T17:00:55;7.22;;;3.72;;
35777;SDS011;21899;42.662;23.316;2022-09-30T17:03:24;10.02;;;3.40;;
35777;SDS011;21899;42.662;23.316;2022-09-30T17:05:50;7.32;;;3.58;;
35777;SDS011;21899;42.662;23.316;2022-09-30T17:08:17;10.02;;;3.58;;
35777;SDS011;21899;42.662;23.316;2022-09-30T17:10:44;9.00;;;3.80;;
35777;SDS011;21899;42.662;23.316;2022-09-30T17:13:12;9.45;;;4.20;;
35777;SDS011;21899;42.662;23.316;2022-09-30T17:15:41;5.68;;;2.88;;
35777;SDS011;21899;42.662;23.316;2022-09-30T17:18:08;6.35;;;3.03;;
35777;SDS011;21899;42.662;23.316;2022-09-30T17:20:34;9.00;;;4.63;;
35777;SDS011;21899;42.662;23.316;2022-09-30T17:23:02;6.85;;;3.53;;
35777;SDS011;21899;42.662;23.316;2022-09-30T17:25:28;5.93;;;3.80;;
35777;SDS011;21899;42.662;23.316;2022-09-30T17:27:53;11.98;;;4.53;;
35777;SDS011;21899;42.662;23.316;2022-09-30T17:30:19;6.72;;;3.45;;
35777;SDS011;21899;42.662;23.316;2022-09-30T17:32:45;9.13;;;4.07;;
35777;SDS011;21899;42.662;23.316;2022-09-30T17:35:12;8.40;;;3.58;;
35777;SDS011;21899;42.662;23.316;2022-09-30T17:37:39;5.80;;;2.88;;
35777;SDS011;21899;42.662;23.316;2022-09-30T17:40:05;6.22;;;3.30;;
35777;SDS011;21899;42.662;23.316;2022-09-30T17:42:54;10.27;;;3.60;;
35777;SDS011;21899;42.662;23.316;2022-09-30T17:45:32;10.40;;;4.03;;
35777;SDS011;21899;42.662;23.316;2022-09-30T17:47:57;8.18;;;4.03;;
35777;SDS011;21899;42.662;23.316;2022-09-30T17:50:23;6.90;;;3.80;;
35777;SDS011;21899;42.662;23.316;2022-09-30T17:52:48;7.18;;;4.07;;
35777;SDS011;21899;42.662;23.316;2022-09-30T17:55:14;6.43;;;4.13;;
35777;SDS011;21899;42.662;23.316;2022-09-30T17:57:39;6.05;;;3.58;;
35777;SDS011;21899;42.662;23.316;2022-09-30T18:00:05;9.13;;;4.15;;
35777;SDS011;21899;42.662;23.316;2022-09-30T18:02:31;8.52;;;4.63;;
35777;SDS011;21899;42.662;23.316;2022-09-30T18:04:56;11.10;;;4.05;;
35777;SDS011;21899;42.662;23.316;2022-09-30T18:07:23;6.82;;;3.90;;
35777;SDS011;21899;42.662;23.316;2022-09-30T18:09:49;8.43;;;3.60;;
35777;SDS011;21899;42.662;23.316;2022-09-30T18:12:15;7.95;;;4.20;;
35777;SDS011;21899;42.662;23.316;2022-09-30T18:14:40;7.00;;;2.65;;
35777;SDS011;21899;42.662;23.316;2022-09-30T18:17:07;6.68;;;3.38;;
35777;SDS011;21899;42.662;23.316;2022-09-30T18:19:33;9.65;;;3.75;;
35777;SDS011;21899;42.662;23.316;2022-09-30T18:21:59;5.85;;;3.10;;
35777;SDS011;21899;42.662;23.316;2022-09-30T18:24:25;13.73;;;5.82;;